Time;durP1;ratioP1;P1;durP2;ratioP2;P2;SDS_P1;SDS_P2;PMS_P1;PMS_P2;Temp;Humidity;BMP_temperature;BMP_pressure;BME280_temperature;BME280_humidity;BME280_pressure;Samples;Min_cycle;Max_cycle;Signal;HPM_P1;HPM_P2
2022/05/08 00:02:01;;;;;;;21.00;6.15;;;11.10;79.80;;;;;;5092798;28;20040;-72
2022/05/08 00:04:29;;;;;;;29.50;7.20;;;11.00;79.90;;;;;;5092854;28;20047;-73
2022/05/08 00:06:57;;;;;;;22.92;6.95;;;11.10;80.00;;;;;;5092730;28;20382;-73
2022/05/08 00:09:24;;;;;;;19.33;7.00;;;11.00;80.10;;;;;;5092277;28;20051;-73
2022/05/08 00:11:54;;;;;;;21.42;6.80;;;11.10;80.20;;;;;;5092244;28;20040;-72
2022/05/08 00:14:22;;;;;;;22.10;6.85;;;11.00;80.20;;;;;;5092122;28;20043;-73
2022/05/08 00:16:50;;;;;;;26.20;7.30;;;11.00;80.20;;;;;;5091299;28;20051;-73
2022/05/08 00:19:18;;;;;;;23.88;6.60;;;11.00;80.30;;;;;;5092143;28;20040;-73
2022/05/08 00:21:45;;;;;;;21.23;7.15;;;11.00;80.40;;;;;;5091300;28;20052;-72
2022/05/08 00:24:13;;;;;;;29.80;7.25;;;11.00;80.40;;;;;;5092357;28;20040;-73
2022/05/08 00:26:40;;;;;;;25.00;6.95;;;11.00;80.40;;;;;;5092311;28;20047;-71
2022/05/08 00:29:10;;;;;;;25.52;7.32;;;10.90;80.40;;;;;;5092273;28;20044;-71
2022/05/08 00:31:39;;;;;;;23.85;6.57;;;10.90;80.40;;;;;;5092709;28;20044;-71
2022/05/08 00:34:06;;;;;;;27.00;7.10;;;10.90;80.40;;;;;;5091114;28;20051;-72
2022/05/08 00:36:39;;;;;;;26.30;7.30;;;11.00;80.50;;;;;;5092507;28;20389;-72
2022/05/08 00:39:06;;;;;;;27.95;7.20;;;11.00;80.40;;;;;;5092328;28;20346;-73
2022/05/08 00:41:34;;;;;;;29.80;8.02;;;11.00;80.50;;;;;;5092266;28;20375;-72
2022/05/08 00:44:03;;;;;;;32.72;8.20;;;11.00;80.50;;;;;;5092429;28;20044;-72
2022/05/08 00:46:31;;;;;;;23.23;7.38;;;10.90;80.60;;;;;;5092033;28;20071;-72
2022/05/08 00:48:58;;;;;;;28.67;7.82;;;10.90;80.80;;;;;;5092115;28;20048;-72
2022/05/08 00:51:27;;;;;;;24.83;7.40;;;10.80;80.80;;;;;;5092129;28;20401;-72
2022/05/08 00:53:58;;;;;;;24.85;7.80;;;10.80;80.90;;;;;;5092273;28;20048;-72
2022/05/08 00:56:26;;;;;;;27.77;7.63;;;10.80;80.90;;;;;;5092146;28;20048;-72
2022/05/08 00:58:54;;;;;;;27.30;7.80;;;10.80;81.00;;;;;;5091936;28;20481;-72
2022/05/08 01:01:22;;;;;;;27.65;8.43;;;10.80;81.00;;;;;;5091940;28;20378;-72
2022/05/08 01:03:50;;;;;;;29.33;8.02;;;10.80;81.10;;;;;;5090867;28;20517;-72
2022/05/08 01:06:18;;;;;;;27.08;8.40;;;10.70;81.20;;;;;;5073813;28;20505;-71
2022/05/08 01:08:48;;;;;;;28.75;7.60;;;10.70;81.20;;;;;;5091872;28;20052;-72
2022/05/08 01:11:17;;;;;;;35.55;8.52;;;10.70;81.30;;;;;;5091816;28;20114;-72
2022/05/08 01:13:45;;;;;;;31.05;7.90;;;10.70;81.30;;;;;;5092772;28;20493;-71
2022/05/08 01:16:15;;;;;;;30.48;7.88;;;10.70;81.40;;;;;;5075177;28;20524;-71
2022/05/08 01:18:45;;;;;;;23.58;8.32;;;10.60;81.40;;;;;;5091730;28;20405;-72
2022/05/08 01:21:17;;;;;;;27.98;8.63;;;10.60;81.40;;;;;;5091996;28;20059;-73
2022/05/08 01:23:45;;;;;;;23.93;7.67;;;10.50;81.50;;;;;;5095852;28;20066;-72
2022/05/08 01:26:20;;;;;;;26.25;8.25;;;10.50;81.50;;;;;;5090784;28;20048;-72
2022/05/08 01:28:48;;;;;;;24.20;7.53;;;10.50;81.60;;;;;;5055584;28;20045;-72
2022/05/08 01:31:17;;;;;;;29.52;8.05;;;10.50;81.70;;;;;;5037628;28;20049;-72
2022/05/08 01:33:45;;;;;;;28.25;7.70;;;10.50;81.60;;;;;;5054889;28;20060;-71
2022/05/08 01:36:12;;;;;;;20.58;7.50;;;10.40;81.80;;;;;;5054967;28;20052;-72
2022/05/08 01:38:40;;;;;;;26.30;8.38;;;10.40;81.80;;;;;;5055316;28;20057;-72
2022/05/08 01:41:08;;;;;;;28.17;8.55;;;10.40;81.80;;;;;;5055376;28;20510;-72
2022/05/08 01:43:36;;;;;;;28.42;8.10;;;10.30;81.80;;;;;;5053800;28;20049;-72
2022/05/08 01:46:04;;;;;;;26.27;8.15;;;10.30;81.90;;;;;;5036810;28;20056;-72
2022/05/08 01:48:33;;;;;;;31.40;8.32;;;10.30;81.90;;;;;;5055231;28;20372;-72
2022/05/08 01:51:03;;;;;;;22.45;8.07;;;10.30;82.00;;;;;;5055108;28;20056;-73
2022/05/08 01:53:32;;;;;;;23.75;7.88;;;10.30;82.00;;;;;;5054503;28;20521;-72
2022/05/08 01:56:02;;;;;;;27.55;8.75;;;10.20;82.10;;;;;;5054876;28;20049;-73
2022/05/08 01:58:31;;;;;;;29.55;7.95;;;10.20;82.10;;;;;;5054867;28;20044;-73
2022/05/08 02:01:01;;;;;;;24.17;7.50;;;10.20;82.10;;;;;;5054776;28;20048;-73
2022/05/08 02:03:29;;;;;;;26.95;8.32;;;10.20;82.10;;;;;;5054978;28;20048;-73
2022/05/08 02:05:57;;;;;;;32.45;8.70;;;10.20;82.20;;;;;;5054742;28;20053;-71
2022/05/08 02:08:24;;;;;;;24.30;8.32;;;10.20;82.20;;;;;;5036894;28;20410;-72
2022/05/08 02:10:55;;;;;;;24.63;8.25;;;10.20;82.30;;;;;;5054769;28;20501;-71
2022/05/08 02:13:22;;;;;;;24.58;8.27;;;10.20;82.40;;;;;;5053868;28;20045;-72
2022/05/08 02:15:50;;;;;;;34.17;9.63;;;10.20;82.40;;;;;;5054381;28;20501;-72
2022/05/08 02:18:18;;;;;;;24.88;8.45;;;10.20;82.50;;;;;;5054387;28;20049;-71
2022/05/08 02:20:45;;;;;;;27.67;9.07;;;10.10;82.40;;;;;;5036253;28;20060;-73
2022/05/08 02:23:13;;;;;;;25.67;9.13;;;10.10;82.50;;;;;;5054508;28;20533;-72
2022/05/08 02:25:42;;;;;;;30.95;9.07;;;10.20;82.60;;;;;;5054614;28;20049;-71
2022/05/08 02:28:09;;;;;;;27.73;8.82;;;10.20;82.70;;;;;;5054293;28;20056;-73
2022/05/08 02:30:37;;;;;;;28.95;9.38;;;10.10;82.80;;;;;;5054305;28;20049;-73
2022/05/08 02:33:05;;;;;;;28.88;9.50;;;10.10;82.80;;;;;;5054183;28;20048;-73
2022/05/08 02:35:34;;;;;;;31.15;9.40;;;10.10;82.90;;;;;;5054029;28;20048;-72
2022/05/08 02:38:01;;;;;;;33.58;9.65;;;10.10;82.90;;;;;;5053337;28;20055;-73
2022/05/08 02:40:29;;;;;;;36.65;9.80;;;10.10;82.90;;;;;;5036578;28;20478;-73
2022/05/08 02:42:56;;;;;;;30.63;9.05;;;10.10;82.90;;;;;;5053901;28;20053;-73
2022/05/08 02:45:24;;;;;;;29.65;9.75;;;10.10;83.00;;;;;;5053025;28;20079;-72
2022/05/08 02:47:52;;;;;;;44.92;10.43;;;10.10;82.90;;;;;;5035977;28;20052;-73
2022/05/08 02:50:20;;;;;;;33.08;8.98;;;10.10;83.00;;;;;;5053964;28;20512;-72
2022/05/08 02:52:48;;;;;;;32.92;9.20;;;10.10;83.00;;;;;;5054024;28;20060;-73
2022/05/08 03:00:48;;;;;;;33.53;9.07;;;10.00;83.00;;;;;;5053837;28;20045;-73
2022/05/08 03:03:15;;;;;;;32.17;9.40;;;10.00;83.00;;;;;;5053809;28;20052;-73
2022/05/08 03:05:45;;;;;;;31.33;9.77;;;10.10;83.00;;;;;;5036091;28;20044;-73
2022/05/08 03:08:15;;;;;;;34.65;10.02;;;10.10;83.00;;;;;;5053896;28;20085;-72
2022/05/08 03:13:36;;;;;;;39.90;10.43;;;10.10;83.10;;;;;;5053928;28;20079;-73
2022/05/08 03:16:05;;;;;;;34.45;9.48;;;10.00;83.10;;;;;;5035872;28;20048;-73
2022/05/08 03:18:38;;;;;;;40.60;10.07;;;10.10;83.10;;;;;;5054746;28;20053;-72
2022/05/08 03:21:08;;;;;;;34.55;10.63;;;10.10;83.10;;;;;;5053349;28;20056;-72
2022/05/08 03:23:39;;;;;;;39.63;10.65;;;10.00;83.10;;;;;;5053459;28;20051;-72
2022/05/08 03:26:07;;;;;;;36.20;9.75;;;10.00;83.10;;;;;;5053043;28;20052;-73
2022/05/08 03:28:38;;;;;;;29.85;10.10;;;10.00;83.10;;;;;;5053151;28;20045;-72
2022/05/08 03:31:06;;;;;;;31.85;9.98;;;10.00;83.10;;;;;;5053308;28;20045;-72
2022/05/08 03:33:35;;;;;;;33.65;10.20;;;10.00;83.10;;;;;;5053163;28;20045;-72
2022/05/08 03:36:04;;;;;;;30.80;9.68;;;10.00;83.10;;;;;;5053067;28;20052;-72
2022/05/08 03:38:33;;;;;;;38.33;10.07;;;10.00;83.20;;;;;;5061740;28;20052;-72
2022/05/08 03:41:02;;;;;;;31.75;9.38;;;9.90;83.10;;;;;;5073076;28;20048;-72
2022/05/08 03:43:29;;;;;;;27.40;9.32;;;9.90;83.20;;;;;;5072981;28;20238;-72
2022/05/08 03:45:57;;;;;;;29.60;8.77;;;9.90;83.20;;;;;;5071361;28;20056;-72
2022/05/08 03:48:25;;;;;;;26.83;9.77;;;9.80;83.30;;;;;;5050117;28;20061;-72
2022/05/08 03:50:53;;;;;;;31.80;9.77;;;9.90;83.30;;;;;;5052958;28;20048;-72
2022/05/08 03:53:20;;;;;;;35.70;9.50;;;9.80;83.30;;;;;;5052919;28;20052;-73
2022/05/08 03:55:48;;;;;;;36.92;9.05;;;9.90;83.30;;;;;;5053692;28;20045;-73
2022/05/08 03:58:16;;;;;;;34.33;9.85;;;9.80;83.30;;;;;;5054091;28;20060;-73
2022/05/08 04:00:44;;;;;;;29.85;9.20;;;9.80;83.50;;;;;;5034653;28;20067;-72
2022/05/08 04:03:12;;;;;;;31.80;10.25;;;9.80;83.40;;;;;;5070456;28;20386;-72
2022/05/08 04:05:40;;;;;;;29.65;9.57;;;9.80;83.50;;;;;;5052442;28;20068;-72
2022/05/08 04:08:08;;;;;;;30.80;10.15;;;9.80;83.50;;;;;;5072492;28;20047;-72
2022/05/08 04:10:38;;;;;;;32.58;9.15;;;9.70;83.60;;;;;;5072363;28;20049;-72
2022/05/08 04:13:05;;;;;;;26.40;9.30;;;9.70;83.60;;;;;;5071646;28;20055;-72
2022/05/08 04:18:19;;;;;;;29.40;8.82;;;9.70;83.70;;;;;;5072081;28;20485;-72
2022/05/08 04:20:47;;;;;;;32.42;9.00;;;9.70;83.70;;;;;;5054419;28;20512;-73
2022/05/08 04:26:00;;;;;;;30.15;8.85;;;9.60;83.80;;;;;;5054191;28;20055;-72
2022/05/08 04:28:28;;;;;;;36.50;8.70;;;9.60;83.80;;;;;;5072183;28;20393;-72
2022/05/08 04:30:55;;;;;;;32.15;8.90;;;9.60;83.80;;;;;;5072206;28;20048;-72
2022/05/08 04:33:23;;;;;;;37.80;8.85;;;9.60;83.90;;;;;;5071977;28;20370;-72
2022/05/08 04:35:51;;;;;;;27.67;9.20;;;9.60;83.90;;;;;;5072110;28;20051;-72
2022/05/08 04:38:18;;;;;;;33.85;9.38;;;9.60;83.90;;;;;;5072372;28;20063;-72
2022/05/08 04:40:46;;;;;;;40.00;9.88;;;9.60;83.90;;;;;;5054348;28;20509;-73
2022/05/08 04:43:13;;;;;;;28.30;8.60;;;9.60;83.90;;;;;;5071952;28;20049;-73
2022/05/08 04:45:41;;;;;;;37.05;9.52;;;9.70;84.00;;;;;;5071916;28;20037;-73
2022/05/08 04:48:09;;;;;;;39.25;9.93;;;9.70;84.00;;;;;;5071814;28;20045;-73
2022/05/08 04:50:38;;;;;;;31.90;9.55;;;9.70;83.90;;;;;;5071881;28;20051;-73
2022/05/08 04:53:06;;;;;;;31.42;10.15;;;9.70;83.90;;;;;;5071775;28;20049;-73
2022/05/08 04:55:33;;;;;;;33.53;8.60;;;9.70;83.90;;;;;;5070689;28;20052;-73
2022/05/08 04:58:01;;;;;;;32.42;9.43;;;9.70;83.90;;;;;;5071137;28;20063;-73
2022/05/08 05:00:29;;;;;;;34.05;9.57;;;9.70;83.90;;;;;;5071617;28;20130;-73
2022/05/08 05:02:56;;;;;;;43.08;9.25;;;9.80;83.80;;;;;;5071877;28;20048;-73
2022/05/08 05:05:24;;;;;;;35.72;9.40;;;9.80;83.80;;;;;;5071872;28;20398;-73
2022/05/08 05:07:52;;;;;;;32.25;9.23;;;9.80;83.80;;;;;;5074469;28;20053;-72
2022/05/08 05:10:20;;;;;;;29.15;9.57;;;9.80;83.70;;;;;;5053903;28;20051;-73
2022/05/08 05:12:47;;;;;;;39.33;9.98;;;9.90;83.70;;;;;;5071561;28;20060;-73
2022/05/08 05:15:16;;;;;;;33.58;10.15;;;9.90;83.60;;;;;;5071992;28;20048;-73
2022/05/08 05:17:44;;;;;;;35.63;9.57;;;9.90;83.60;;;;;;5071809;28;20045;-73
2022/05/08 05:20:12;;;;;;;27.73;8.65;;;10.00;83.50;;;;;;5072840;28;20064;-73
2022/05/08 05:22:39;;;;;;;36.25;9.07;;;10.00;83.40;;;;;;5070679;28;20049;-74
2022/05/08 05:25:07;;;;;;;35.10;8.68;;;10.00;83.40;;;;;;5071609;28;20045;-73
2022/05/08 05:27:35;;;;;;;39.03;9.32;;;10.00;83.30;;;;;;5053790;28;20055;-73
2022/05/08 05:30:03;;;;;;;33.90;9.30;;;10.00;83.30;;;;;;5071664;28;20045;-73
2022/05/08 05:32:31;;;;;;;33.25;9.23;;;10.10;83.30;;;;;;5071734;28;20052;-73
2022/05/08 05:34:59;;;;;;;30.73;8.75;;;10.00;83.20;;;;;;5071588;28;20047;-73
2022/05/08 05:37:26;;;;;;;39.70;9.40;;;10.10;83.20;;;;;;5071167;28;20106;-73
2022/05/08 05:39:54;;;;;;;32.20;8.35;;;10.10;83.20;;;;;;5071335;28;20040;-73
2022/05/08 05:42:22;;;;;;;30.55;8.38;;;10.10;83.20;;;;;;5070432;28;20052;-73
2022/05/08 05:44:49;;;;;;;32.28;8.40;;;10.20;83.20;;;;;;5071315;28;20060;-73
2022/05/08 05:50:03;;;;;;;28.77;7.93;;;10.10;83.10;;;;;;5071221;28;20482;-73
2022/05/08 05:52:35;;;;;;;27.02;8.45;;;10.10;83.10;;;;;;5071095;28;20486;-74
2022/05/08 05:55:06;;;;;;;27.52;8.02;;;10.20;83.10;;;;;;5071252;28;20370;-73
2022/05/08 05:57:35;;;;;;;39.05;7.50;;;10.20;83.10;;;;;;5071249;28;20059;-73
2022/05/08 06:00:09;;;;;;;31.20;8.38;;;10.20;83.10;;;;;;5071312;28;20051;-74
2022/05/08 06:02:43;;;;;;;29.13;7.38;;;10.30;83.00;;;;;;5070432;28;20045;-74
2022/05/08 06:05:11;;;;;;;28.08;7.07;;;10.30;82.90;;;;;;5071103;28;20044;-73
2022/05/08 06:07:40;;;;;;;25.73;6.45;;;10.40;82.70;;;;;;5071958;28;20044;-73
2022/05/08 06:10:09;;;;;;;28.25;6.63;;;10.40;82.50;;;;;;5074103;28;20045;-73
2022/05/08 06:12:37;;;;;;;32.75;6.65;;;10.40;82.40;;;;;;5074808;28;20052;-73
2022/05/08 06:15:08;;;;;;;28.90;6.45;;;10.40;82.30;;;;;;5056453;28;20367;-73
2022/05/08 06:17:36;;;;;;;20.90;6.32;;;10.40;82.20;;;;;;5072025;28;20560;-73
2022/05/08 06:20:04;;;;;;;27.08;6.95;;;10.40;82.20;;;;;;5073240;28;20436;-73
2022/05/08 06:22:35;;;;;;;24.83;5.85;;;10.40;82.20;;;;;;5074766;28;20040;-73
2022/05/08 06:25:04;;;;;;;22.88;6.72;;;10.40;82.10;;;;;;5083913;28;20040;-73
2022/05/08 06:27:31;;;;;;;30.02;6.82;;;10.40;82.10;;;;;;5082851;28;20063;-73
2022/05/08 06:29:59;;;;;;;23.95;6.20;;;10.50;82.10;;;;;;5094551;28;20048;-73
2022/05/08 06:32:27;;;;;;;27.48;6.28;;;10.50;81.90;;;;;;5076345;28;20063;-73
2022/05/08 06:34:55;;;;;;;28.85;6.85;;;10.50;81.80;;;;;;5094376;28;20091;-74
2022/05/08 06:37:22;;;;;;;30.25;7.10;;;10.60;81.70;;;;;;5094010;28;20075;-73
2022/05/08 06:39:50;;;;;;;21.25;6.22;;;10.70;81.60;;;;;;5094298;28;20047;-73
2022/05/08 06:42:18;;;;;;;28.48;7.00;;;10.80;81.40;;;;;;5094397;28;20513;-73
2022/05/08 06:44:52;;;;;;;30.20;6.93;;;10.80;81.20;;;;;;5094420;28;20259;-73
2022/05/08 06:47:20;;;;;;;30.17;7.40;;;10.80;81.10;;;;;;5094316;28;20067;-73
2022/05/08 06:49:47;;;;;;;24.13;6.72;;;10.80;80.90;;;;;;5094141;28;20052;-73
2022/05/08 06:52:16;;;;;;;28.30;6.80;;;10.90;80.90;;;;;;5094166;28;20048;-73
2022/05/08 06:54:44;;;;;;;25.17;6.32;;;10.90;80.70;;;;;;5076572;28;20059;-73
2022/05/08 06:57:12;;;;;;;21.30;5.60;;;10.80;80.60;;;;;;5094222;28;20437;-71
2022/05/08 07:02:27;;;;;;;19.90;6.03;;;10.80;80.50;;;;;;5094077;28;20602;-71
2022/05/08 07:04:55;;;;;;;32.90;6.38;;;10.80;80.40;;;;;;5096354;28;20044;-72
2022/05/08 07:07:23;;;;;;;24.58;5.75;;;10.80;80.50;;;;;;5074838;28;20516;-72
2022/05/08 07:09:55;;;;;;;32.53;7.32;;;10.80;80.40;;;;;;5094034;28;20052;-72
2022/05/08 07:12:23;;;;;;;28.15;6.18;;;10.80;80.40;;;;;;5093827;28;20040;-72
2022/05/08 07:14:53;;;;;;;33.50;7.10;;;10.90;80.50;;;;;;5093934;28;20071;-72
2022/05/08 07:17:23;;;;;;;25.48;6.40;;;10.90;80.40;;;;;;5093700;28;20040;-72
2022/05/08 07:19:51;;;;;;;24.60;5.97;;;10.90;80.30;;;;;;5091828;28;20081;-71
2022/05/08 07:22:19;;;;;;;23.60;5.78;;;10.90;80.30;;;;;;5093956;28;20051;-73
2022/05/08 07:24:46;;;;;;;26.20;6.25;;;11.00;80.30;;;;;;5093665;28;20055;-73
2022/05/08 07:27:14;;;;;;;24.85;6.78;;;10.90;80.40;;;;;;5075592;28;20071;-74
2022/05/08 07:29:43;;;;;;;25.73;5.65;;;10.90;80.50;;;;;;5075754;28;20048;-74
2022/05/08 07:32:11;;;;;;;27.50;6.68;;;10.90;80.60;;;;;;5093938;28;20051;-74
2022/05/08 07:37:25;;;;;;;28.15;5.78;;;11.00;80.50;;;;;;5093627;28;20059;-73
2022/05/08 07:39:53;;;;;;;19.35;5.90;;;11.00;80.50;;;;;;5093298;28;20048;-73
2022/05/08 07:42:20;;;;;;;24.38;5.75;;;11.10;80.40;;;;;;5093497;28;20044;-73
2022/05/08 07:44:48;;;;;;;21.35;6.30;;;11.10;80.40;;;;;;5093226;28;20052;-74
2022/05/08 07:47:16;;;;;;;24.25;6.10;;;11.10;80.40;;;;;;5092394;28;20504;-73
2022/05/08 07:49:44;;;;;;;27.20;5.93;;;11.10;80.50;;;;;;5092409;28;20063;-73
2022/05/08 07:52:11;;;;;;;20.65;5.68;;;11.20;80.40;;;;;;5093181;28;20493;-74
2022/05/08 07:54:39;;;;;;;29.98;6.80;;;11.20;80.50;;;;;;5093080;28;20036;-73
2022/05/08 07:57:07;;;;;;;31.15;6.65;;;11.20;80.40;;;;;;5093074;28;20059;-73
2022/05/08 07:59:34;;;;;;;33.17;6.43;;;11.30;80.30;;;;;;5092852;28;20059;-73
2022/05/08 08:02:03;;;;;;;27.42;6.13;;;11.30;80.30;;;;;;5074863;28;20048;-73
2022/05/08 08:04:31;;;;;;;23.75;5.85;;;11.30;80.30;;;;;;5092881;28;20485;-73
2022/05/08 08:06:59;;;;;;;27.65;5.88;;;11.40;80.20;;;;;;5092892;28;20040;-73
2022/05/08 08:09:27;;;;;;;32.50;5.63;;;11.40;80.10;;;;;;5092982;28;20044;-73
2022/05/08 08:11:54;;;;;;;26.52;5.50;;;11.50;80.00;;;;;;5091781;28;20070;-74
2022/05/08 08:14:22;;;;;;;28.35;6.20;;;11.60;80.00;;;;;;5092747;28;20062;-73
2022/05/08 08:17:10;;;;;;;23.75;5.78;;;11.60;79.80;;;;;;5077952;28;20199;-73
2022/05/08 08:19:37;;;;;;;35.10;6.50;;;11.60;79.60;;;;;;5090832;28;20070;-73
2022/05/08 08:22:05;;;;;;;29.55;6.13;;;11.70;79.40;;;;;;5094761;28;20052;-72
2022/05/08 08:24:33;;;;;;;29.65;6.72;;;11.80;79.30;;;;;;5112987;28;20058;-73
2022/05/08 08:27:01;;;;;;;26.23;5.70;;;11.80;79.10;;;;;;5112944;28;20051;-73
2022/05/08 08:29:28;;;;;;;33.53;6.28;;;11.80;79.10;;;;;;5113045;28;20066;-74
2022/05/08 08:31:56;;;;;;;30.35;5.90;;;11.80;78.80;;;;;;5111861;28;20133;-73
2022/05/08 08:34:23;;;;;;;26.52;5.85;;;11.90;78.60;;;;;;5112885;28;20043;-73
2022/05/08 08:36:51;;;;;;;26.35;5.32;;;12.00;78.40;;;;;;5113060;28;20040;-73
2022/05/08 08:39:19;;;;;;;25.02;5.95;;;12.00;78.00;;;;;;5112169;28;20527;-73
2022/05/08 08:41:54;;;;;;;22.38;5.07;;;12.00;77.80;;;;;;5112732;28;20480;-72
2022/05/08 08:50:03;;;;;;;28.05;5.82;;;11.90;77.40;;;;;;5112400;28;20059;-75
2022/05/08 08:52:31;;;;;;;15.68;5.20;;;11.90;77.40;;;;;;5111736;28;20393;-75
2022/05/08 08:54:59;;;;;;;14.63;5.20;;;11.80;77.50;;;;;;5113048;28;20374;-74
2022/05/08 08:57:27;;;;;;;14.40;5.30;;;11.80;77.40;;;;;;5112012;28;20066;-74
2022/05/08 08:59:54;;;;;;;18.90;6.05;;;11.80;77.30;;;;;;5115695;28;20069;-75
2022/05/08 09:02:22;;;;;;;16.13;6.45;;;11.80;77.30;;;;;;5114165;28;20040;-72
2022/05/08 09:04:50;;;;;;;15.65;6.00;;;11.80;77.40;;;;;;5112588;28;20388;-75
2022/05/08 09:07:39;;;;;;;18.42;6.05;;;11.80;77.40;;;;;;5094445;28;20047;-73
2022/05/08 09:10:21;;;;;;;15.73;5.85;;;11.80;77.50;;;;;;5112482;28;20054;-73
2022/05/08 09:12:54;;;;;;;18.27;6.35;;;11.90;77.30;;;;;;5112481;28;20062;-73
2022/05/08 09:15:21;;;;;;;;;;;12.00;77.20;;;;;;5112796;28;20496;-73
2022/05/08 09:17:54;;;;;;;19.20;6.65;;;12.10;77.10;;;;;;5112206;28;19920;-73
2022/05/08 09:20:42;;;;;;;17.38;6.75;;;12.20;77.00;;;;;;5110927;28;20048;-73
2022/05/08 09:23:17;;;;;;;18.52;6.72;;;12.30;76.80;;;;;;5111980;28;20036;-73
2022/05/08 09:25:55;;;;;;;18.70;7.82;;;12.40;76.50;;;;;;5111253;28;20055;-73
2022/05/08 09:28:44;;;;;;;20.15;7.32;;;12.50;76.40;;;;;;5111887;28;20047;-73
2022/05/08 09:31:13;;;;;;;19.88;7.40;;;12.60;76.10;;;;;;5112183;28;20043;-74
2022/05/08 09:33:46;;;;;;;21.58;7.90;;;12.60;75.90;;;;;;5112301;28;20051;-73
2022/05/08 09:36:17;;;;;;;21.63;7.47;;;12.70;75.70;;;;;;5111864;28;20050;-73
2022/05/08 09:38:52;;;;;;;24.38;7.63;;;12.70;75.60;;;;;;5110705;28;20489;-73
2022/05/08 09:41:29;;;;;;;20.40;8.15;;;12.70;75.80;;;;;;5111029;28;20401;-73
2022/05/08 09:44:11;;;;;;;23.42;9.73;;;12.70;75.50;;;;;;5114711;28;20523;-72
2022/05/08 09:46:43;;;;;;;21.58;9.70;;;12.70;75.30;;;;;;5116067;28;20052;-72
2022/05/08 09:49:20;;;;;;;22.10;10.18;;;12.60;75.20;;;;;;5116278;28;20043;-72
2022/05/08 09:51:49;;;;;;;22.58;9.85;;;12.60;75.50;;;;;;5098057;28;20050;-72
2022/05/08 09:54:18;;;;;;;21.52;8.98;;;12.60;75.50;;;;;;5115744;28;20393;-72
2022/05/08 09:56:46;;;;;;;23.63;9.32;;;12.60;75.50;;;;;;5115752;28;20070;-72
2022/05/08 09:59:18;;;;;;;21.90;9.50;;;12.60;75.60;;;;;;5114289;28;20075;-72
2022/05/08 10:01:46;;;;;;;27.73;9.50;;;12.60;75.70;;;;;;5115856;28;20040;-72
2022/05/08 10:04:14;;;;;;;25.25;10.02;;;12.70;75.70;;;;;;5115837;28;20385;-72
2022/05/08 10:06:42;;;;;;;21.42;9.38;;;12.80;75.50;;;;;;5115629;28;20040;-72
2022/05/08 10:14:49;;;;;;;24.25;9.63;;;12.80;75.40;;;;;;5115607;28;20400;-72
2022/05/08 10:17:37;;;;;;;21.80;10.23;;;12.90;75.30;;;;;;5115360;28;20396;-72
2022/05/08 10:20:06;;;;;;;26.48;9.63;;;13.00;74.90;;;;;;5115259;28;20051;-73
2022/05/08 10:22:49;;;;;;;25.48;10.43;;;13.00;74.90;;;;;;5115297;28;20040;-73
2022/05/08 10:25:17;;;;;;;21.90;9.95;;;13.10;74.90;;;;;;5115520;28;20039;-72
2022/05/08 10:28:07;;;;;;;22.45;10.20;;;13.20;74.60;;;;;;5114737;28;20392;-72
2022/05/08 10:30:34;;;;;;;24.10;9.73;;;13.30;74.50;;;;;;5112993;28;20051;-72
2022/05/08 10:33:02;;;;;;;26.95;11.10;;;13.30;74.50;;;;;;5113674;28;20048;-73
2022/05/08 10:35:31;;;;;;;25.17;9.98;;;13.40;74.20;;;;;;5114660;28;20055;-72
2022/05/08 10:38:01;;;;;;;22.27;9.38;;;13.50;73.90;;;;;;5114900;28;20040;-72
2022/05/08 10:40:32;;;;;;;21.33;9.38;;;13.70;73.80;;;;;;5114882;28;20135;-72
2022/05/08 10:43:18;;;;;;;18.10;8.85;;;13.80;73.50;;;;;;5114860;28;20047;-72
2022/05/08 10:45:46;;;;;;;22.45;9.38;;;13.90;73.20;;;;;;5114902;28;20050;-72
2022/05/08 10:48:21;;;;;;;26.17;9.50;;;14.10;72.60;;;;;;5114762;28;20504;-72
2022/05/08 10:50:59;;;;;;;25.98;9.05;;;14.30;72.20;;;;;;5114814;28;20048;-72
2022/05/08 10:53:31;;;;;;;23.20;8.63;;;14.40;71.80;;;;;;5114697;28;20047;-72
2022/05/08 10:56:03;;;;;;;19.87;9.10;;;14.60;71.70;;;;;;5116425;28;20059;-73
2022/05/08 10:58:34;;;;;;;19.65;8.85;;;14.70;71.00;;;;;;5116512;28;20059;-72
2022/05/08 11:01:05;;;;;;;23.80;9.68;;;14.70;70.20;;;;;;5113447;28;20501;-72
2022/05/08 11:03:35;;;;;;;21.80;9.68;;;14.70;70.30;;;;;;5113309;28;20066;-72
2022/05/08 11:06:05;;;;;;;20.55;9.07;;;14.70;70.30;;;;;;5114106;28;20500;-73
2022/05/08 11:08:35;;;;;;;22.17;9.02;;;14.80;70.40;;;;;;5113969;28;20052;-72
2022/05/08 11:11:07;;;;;;;17.90;8.85;;;15.00;70.30;;;;;;5112713;28;20047;-73
2022/05/08 11:13:49;;;;;;;19.00;8.20;;;15.20;69.90;;;;;;5114285;27;20047;-72
2022/05/08 11:16:41;;;;;;;20.48;8.60;;;15.30;69.30;;;;;;5114479;28;20070;-72
2022/05/08 11:19:09;;;;;;;16.88;9.13;;;15.50;69.00;;;;;;5114141;28;20047;-73
2022/05/08 11:21:37;;;;;;;16.55;9.00;;;15.50;68.50;;;;;;5114093;28;20172;-72
2022/05/08 11:24:05;;;;;;;14.30;8.45;;;15.70;68.20;;;;;;5113996;28;20043;-73
2022/05/08 11:26:34;;;;;;;17.13;8.55;;;15.80;67.80;;;;;;5113702;28;20059;-72
2022/05/08 11:29:04;;;;;;;13.90;8.13;;;16.00;67.60;;;;;;5113902;28;20393;-73
2022/05/08 11:31:34;;;;;;;17.23;8.32;;;16.10;67.60;;;;;;5114042;28;20044;-73
2022/05/08 11:36:49;;;;;;;18.52;8.15;;;16.80;66.30;;;;;;5113397;28;20048;-73
2022/05/08 11:39:19;;;;;;;16.05;8.85;;;17.00;65.40;;;;;;5113526;28;20055;-73
2022/05/08 11:41:50;;;;;;;15.52;8.75;;;17.20;64.50;;;;;;5113674;28;20039;-73
2022/05/08 11:44:20;;;;;;;12.35;8.20;;;17.30;63.80;;;;;;5113568;28;20040;-73
2022/05/08 11:46:54;;;;;;;16.40;8.15;;;17.50;63.90;;;;;;5113714;28;20039;-73
2022/05/08 11:49:32;;;;;;;12.27;7.88;;;17.60;62.70;;;;;;5113716;28;20061;-73
2022/05/08 11:52:06;;;;;;;11.50;7.05;;;17.50;62.20;;;;;;5113622;28;20400;-73
2022/05/08 11:54:35;;;;;;;11.15;7.13;;;17.50;62.10;;;;;;5113134;28;20040;-73
2022/05/08 11:57:08;;;;;;;13.02;6.82;;;17.50;62.30;;;;;;5111000;28;20061;-73
2022/05/08 11:59:36;;;;;;;9.88;7.45;;;17.50;62.20;;;;;;5113406;28;20504;-73
2022/05/08 12:02:04;;;;;;;11.90;8.05;;;17.50;61.90;;;;;;5113468;28;20055;-73
2022/05/08 12:04:35;;;;;;;9.32;7.25;;;17.40;61.50;;;;;;5113456;28;20052;-73
2022/05/08 12:07:03;;;;;;;12.95;8.23;;;17.30;62.00;;;;;;5110804;28;20504;-73
2022/05/08 12:09:33;;;;;;;11.68;7.50;;;17.30;62.20;;;;;;5113124;28;20051;-73
2022/05/08 12:12:27;;;;;;;12.52;8.00;;;17.30;62.20;;;;;;5113307;28;20392;-73
2022/05/08 12:15:07;;;;;;;8.80;7.22;;;17.40;61.80;;;;;;5112638;28;20048;-73
2022/05/08 12:17:42;;;;;;;11.00;7.30;;;17.40;62.00;;;;;;5112826;28;20055;-73
2022/05/08 12:20:25;;;;;;;10.40;7.47;;;17.50;62.00;;;;;;5111800;28;20051;-73
2022/05/08 12:23:05;;;;;;;11.00;7.70;;;17.70;61.60;;;;;;5113050;28;20043;-73
2022/05/08 12:25:34;;;;;;;11.82;7.13;;;17.80;61.00;;;;;;5113061;28;20058;-73
2022/05/08 12:28:03;;;;;;;14.00;8.25;;;18.00;60.70;;;;;;5112835;28;20385;-73
2022/05/08 12:30:31;;;;;;;12.18;8.20;;;18.20;60.10;;;;;;5113117;28;20385;-73
2022/05/08 12:32:59;;;;;;;11.25;7.80;;;18.60;59.90;;;;;;5113161;28;20050;-73
2022/05/08 12:35:27;;;;;;;13.77;8.25;;;18.70;59.00;;;;;;5112429;28;20074;-73
2022/05/08 12:37:55;;;;;;;11.70;8.23;;;18.80;58.40;;;;;;5112751;28;20052;-74
2022/05/08 12:40:23;;;;;;;14.82;9.52;;;18.80;58.30;;;;;;5112865;28;20401;-73
2022/05/08 12:42:52;;;;;;;13.75;8.32;;;18.80;57.60;;;;;;5112766;28;20035;-73
2022/05/08 12:45:20;;;;;;;16.88;8.18;;;18.70;57.20;;;;;;5112871;28;20047;-73
2022/05/08 12:47:48;;;;;;;12.20;8.02;;;18.70;57.90;;;;;;5112896;28;20489;-73
2022/05/08 12:50:15;;;;;;;17.88;9.15;;;18.80;58.00;;;;;;5112678;28;20445;-73
2022/05/08 12:52:45;;;;;;;14.40;8.52;;;19.00;56.70;;;;;;5113491;28;20050;-73
2022/05/08 12:55:15;;;;;;;15.20;9.07;;;19.30;56.90;;;;;;5114470;28;20052;-73
2022/05/08 13:00:31;;;;;;;18.40;10.65;;;20.00;55.50;;;;;;5111346;28;20047;-73
2022/05/08 13:03:00;;;;;;;16.73;10.48;;;20.30;55.10;;;;;;5111049;28;20508;-72
2022/05/08 13:05:29;;;;;;;16.02;10.20;;;20.80;54.50;;;;;;5112185;28;20051;-73
2022/05/08 13:07:57;;;;;;;16.42;9.52;;;21.20;53.60;;;;;;5112357;28;20039;-73
2022/05/08 13:10:26;;;;;;;15.43;10.95;;;21.50;52.90;;;;;;5112745;28;20043;-73
2022/05/08 13:13:00;;;;;;;14.43;9.07;;;21.80;50.40;;;;;;5112549;28;20047;-73
2022/05/08 13:15:28;;;;;;;16.38;10.35;;;21.80;51.30;;;;;;5112532;28;20066;-73
2022/05/08 13:17:55;;;;;;;14.45;9.93;;;22.10;51.10;;;;;;5113903;28;20416;-73
2022/05/08 13:20:23;;;;;;;14.18;9.88;;;22.60;50.20;;;;;;5116446;28;20054;-74
2022/05/08 13:22:51;;;;;;;13.15;9.77;;;22.80;49.50;;;;;;5116529;28;20048;-73
2022/05/08 13:25:19;;;;;;;18.30;10.45;;;23.00;48.80;;;;;;5116731;28;20052;-73
2022/05/08 13:27:46;;;;;;;13.98;9.95;;;23.10;47.20;;;;;;5115805;28;20517;-73
2022/05/08 13:30:15;;;;;;;18.45;10.60;;;23.30;47.80;;;;;;5116401;28;20047;-73